createdAt,value
2023-09-06T00:01:34.509Z,98747.63
2023-09-06T00:04:01.057Z,98753.81
2023-09-06T00:06:27.625Z,98761.38
2023-09-06T00:08:54.057Z,98755.34
2023-09-06T00:11:20.468Z,98752.34
2023-09-06T00:13:46.858Z,98757.03
2023-09-06T00:16:13.218Z,98753.84
2023-09-06T00:18:39.683Z,98737.25
2023-09-06T00:21:06.031Z,98753.28
2023-09-06T00:23:33.363Z,98744.69
2023-09-06T00:25:59.790Z,98759.19
2023-09-06T00:28:26.436Z,98750.91
2023-09-06T00:30:53.764Z,98754.75
2023-09-06T00:33:20.180Z,98752.56
2023-09-06T00:35:46.542Z,98741.88
2023-09-06T00:38:12.908Z,98752.22
2023-09-06T00:40:39.332Z,98758.38
2023-09-06T00:43:07.449Z,98759.50
2023-09-06T00:45:45.189Z,98764.22
2023-09-06T00:48:17.563Z,98754.09
2023-09-06T00:50:44.415Z,98757.84
2023-09-06T00:53:10.907Z,98755.50
2023-09-06T00:55:37.785Z,98747.41
2023-09-06T00:58:07.479Z,98755.22
2023-09-06T01:00:34.211Z,98749.84
2023-09-06T01:03:00.796Z,98756.28
2023-09-06T01:05:29.680Z,98752.22
2023-09-06T01:08:01.014Z,98752.00
2023-09-06T01:10:52.964Z,98759.63
2023-09-06T01:13:24.782Z,98753.97
2023-09-06T01:16:05.679Z,98758.00
2023-09-06T01:18:43.675Z,98746.75
2023-09-06T01:21:25.232Z,98747.81
2023-09-06T01:23:53.810Z,98744.03
2023-09-06T01:26:33.538Z,98744.06
2023-09-06T01:29:04.474Z,98748.72
2023-09-06T01:31:32.744Z,98746.50
2023-09-06T01:34:04.886Z,98745.38
2023-09-06T01:36:42.834Z,98745.38
2023-09-06T01:39:09.461Z,98744.25
2023-09-06T01:41:51.606Z,98733.56
2023-09-06T01:44:22.399Z,98728.94
2023-09-06T01:46:51.477Z,98727.41
2023-09-06T01:49:20.589Z,98729.34
2023-09-06T01:51:50.567Z,98735.88
2023-09-06T01:54:20.488Z,98734.63
2023-09-06T01:56:47.297Z,98723.84
2023-09-06T01:59:14.057Z,98747.09
2023-09-06T02:01:40.444Z,98736.34
2023-09-06T02:04:07.193Z,98747.72
2023-09-06T02:06:33.725Z,98740.16
2023-09-06T02:09:00.151Z,98734.25
2023-09-06T02:11:27.159Z,98732.13
2023-09-06T02:13:53.510Z,98748.84
2023-09-06T02:16:20.706Z,98742.50
2023-09-06T02:18:47.209Z,98748.16
2023-09-06T02:21:13.599Z,98748.19
2023-09-06T02:23:39.984Z,98740.97
2023-09-06T02:26:06.339Z,98745.25
2023-09-06T02:28:33.076Z,98745.53
2023-09-06T02:31:00.580Z,98741.69
2023-09-06T02:33:26.963Z,98745.19
2023-09-06T02:35:53.337Z,98747.06
2023-09-06T02:38:19.719Z,98732.50
2023-09-06T02:40:46.139Z,98725.66
2023-09-06T02:43:12.693Z,98744.09
2023-09-06T02:45:39.289Z,98744.94
2023-09-06T02:48:10.081Z,98746.94
2023-09-06T02:50:36.529Z,98740.97
2023-09-06T02:53:03.296Z,98754.16
2023-09-06T02:55:29.986Z,98748.41
2023-09-06T02:57:56.476Z,98754.06
2023-09-06T03:00:22.995Z,98757.59
2023-09-06T03:02:49.446Z,98756.66
2023-09-06T03:05:15.946Z,98761.09
2023-09-06T03:07:42.296Z,98752.78
2023-09-06T03:10:09.432Z,98771.88
2023-09-06T03:12:35.833Z,98770.84
2023-09-06T03:15:02.300Z,98772.91
2023-09-06T03:17:28.669Z,98771.69
2023-09-06T03:19:55.093Z,98755.03
2023-09-06T03:22:24.515Z,98768.78
2023-09-06T03:24:50.960Z,98766.88
2023-09-06T03:27:17.344Z,98753.09
2023-09-06T03:29:44.318Z,98764.00
2023-09-06T03:32:10.948Z,98759.41
2023-09-06T03:34:38.252Z,98751.25
2023-09-06T03:37:05.721Z,98760.50
2023-09-06T03:39:33.112Z,98763.41
2023-09-06T03:41:59.481Z,98772.06
2023-09-06T03:44:25.840Z,98774.03
2023-09-06T03:46:52.335Z,98772.56
2023-09-06T03:49:18.926Z,98778.06
2023-09-06T03:51:45.404Z,98776.59
2023-09-06T03:54:11.769Z,98778.78
2023-09-06T03:56:38.182Z,98783.84
2023-09-06T03:59:04.693Z,98782.13
2023-09-06T04:01:31.174Z,98773.75
2023-09-06T04:03:57.714Z,98778.56
2023-09-06T04:06:24.192Z,98774.50
2023-09-06T04:08:50.646Z,98767.50
2023-09-06T04:11:17.141Z,98769.50
2023-09-06T04:13:43.492Z,98780.97
2023-09-06T04:16:09.861Z,98763.69
2023-09-06T04:18:36.317Z,98782.31
2023-09-06T04:21:02.824Z,98776.09
2023-09-06T04:23:29.274Z,98783.00
2023-09-06T04:25:55.771Z,98785.47
2023-09-06T04:28:22.241Z,98763.94
2023-09-06T04:30:48.648Z,98776.81
2023-09-06T04:33:15.100Z,98782.03
2023-09-06T04:35:43.868Z,98784.22
2023-09-06T04:38:11.188Z,98786.66
2023-09-06T04:40:37.627Z,98785.81
2023-09-06T04:43:04.086Z,98780.84
2023-09-06T04:45:30.661Z,98792.47
2023-09-06T04:47:57.066Z,98793.69
2023-09-06T04:50:23.765Z,98781.59
2023-09-06T04:52:50.529Z,98784.03
2023-09-06T04:55:16.926Z,98796.28
2023-09-06T04:57:43.381Z,98797.88
2023-09-06T05:00:11.206Z,98794.66
2023-09-06T05:02:37.684Z,98777.91
2023-09-06T05:05:05.324Z,98792.63
2023-09-06T05:07:31.726Z,98786.84
2023-09-06T05:09:58.082Z,98807.13
2023-09-06T05:12:24.440Z,98803.91
2023-09-06T05:14:50.792Z,98808.63
2023-09-06T05:17:17.150Z,98794.06
2023-09-06T05:19:43.537Z,98806.16
2023-09-06T05:22:09.887Z,98809.63
2023-09-06T05:24:36.263Z,98814.28
2023-09-06T05:27:02.603Z,98792.28
2023-09-06T05:29:28.982Z,98806.63
2023-09-06T05:31:55.414Z,98799.41
2023-09-06T05:34:21.807Z,98808.00
2023-09-06T05:36:48.185Z,98809.56
2023-09-06T05:39:14.545Z,98805.88
2023-09-06T05:41:40.912Z,98816.22
2023-09-06T05:44:07.324Z,98793.69
2023-09-06T05:46:34.309Z,98807.53
2023-09-06T05:49:00.827Z,98803.72
2023-09-06T05:51:27.213Z,98797.63
2023-09-06T05:53:53.611Z,98813.72
2023-09-06T05:56:19.995Z,98801.41
2023-09-06T05:58:46.390Z,98809.78
2023-09-06T06:01:12.788Z,98802.84
2023-09-06T06:03:39.470Z,98810.06
2023-09-06T06:06:05.902Z,98814.13
2023-09-06T06:08:32.498Z,98816.34
2023-09-06T06:10:59.074Z,98825.72
2023-09-06T06:13:25.587Z,98812.25
2023-09-06T06:15:51.989Z,98803.16
2023-09-06T06:18:18.380Z,98822.41
2023-09-06T06:20:45.108Z,98821.88
2023-09-06T06:23:11.618Z,98816.09
2023-09-06T06:25:37.986Z,98826.41
2023-09-06T06:28:04.793Z,98826.31
2023-09-06T06:30:31.248Z,98803.31
2023-09-06T06:32:57.763Z,98817.19
2023-09-06T06:35:24.289Z,98827.09
2023-09-06T06:37:50.717Z,98823.31
2023-09-06T06:40:17.130Z,98820.19
2023-09-06T06:42:45.337Z,98825.09
2023-09-06T06:45:12.002Z,98840.41
2023-09-06T06:47:38.551Z,98836.78
2023-09-06T06:50:05.682Z,98837.94
2023-09-06T06:52:32.059Z,98836.31
2023-09-06T06:54:58.440Z,98844.22
2023-09-06T06:57:24.816Z,98827.69
2023-09-06T06:59:51.217Z,98825.56
2023-09-06T07:02:17.655Z,98832.78
2023-09-06T07:04:44.134Z,98832.41
2023-09-06T07:07:10.550Z,98836.59
2023-09-06T07:09:36.900Z,98822.34
2023-09-06T07:12:03.462Z,98835.03
2023-09-06T07:14:29.855Z,98834.34
2023-09-06T07:16:56.321Z,98835.47
2023-09-06T07:19:23.129Z,98838.16
2023-09-06T07:21:49.507Z,98836.81
2023-09-06T07:24:15.959Z,98845.31
2023-09-06T07:26:42.352Z,98828.56
2023-09-06T07:29:08.960Z,98844.63
2023-09-06T07:31:36.511Z,98833.06
2023-09-06T07:34:03.029Z,98831.16
2023-09-06T07:36:29.497Z,98831.63
2023-09-06T07:38:57.855Z,98832.91
2023-09-06T07:41:24.266Z,98830.78
2023-09-06T07:43:50.718Z,98828.25
2023-09-06T07:46:17.102Z,98830.91
2023-09-06T07:48:43.623Z,98844.66
2023-09-06T07:51:10.112Z,98837.97
2023-09-06T07:53:36.600Z,98845.75
2023-09-06T07:56:03.146Z,98838.31
2023-09-06T07:58:31.276Z,98844.81
2023-09-06T08:01:11.310Z,98856.44
2023-09-06T08:03:44.778Z,98849.53
2023-09-06T08:06:11.388Z,98851.63
2023-09-06T08:08:37.848Z,98833.28
2023-09-06T08:11:04.216Z,98852.66
2023-09-06T08:13:30.596Z,98856.78
2023-09-06T08:15:56.964Z,98865.19
2023-09-06T08:18:23.437Z,98851.97
2023-09-06T08:20:49.948Z,98860.88
2023-09-06T08:23:16.320Z,98843.16
2023-09-06T08:25:42.692Z,98864.53
2023-09-06T08:28:09.109Z,98863.78
2023-09-06T08:30:35.541Z,98861.16
2023-09-06T08:33:02.023Z,98868.56
2023-09-06T08:35:28.504Z,98845.66
2023-09-06T08:37:54.863Z,98868.06
2023-09-06T08:40:21.275Z,98868.50
2023-09-06T08:42:48.174Z,98865.19
2023-09-06T08:45:20.793Z,98866.97
2023-09-06T08:47:47.274Z,98855.34
2023-09-06T08:50:13.902Z,98855.34
2023-09-06T08:52:44.645Z,98874.47
2023-09-06T08:55:11.722Z,98870.56
2023-09-06T08:57:39.354Z,98855.22
2023-09-06T09:00:07.129Z,98870.34
2023-09-06T09:02:33.539Z,98870.19
2023-09-06T09:05:13.702Z,98861.00
2023-09-06T09:07:46.279Z,98865.41
2023-09-06T09:10:13.078Z,98866.75
2023-09-06T09:12:39.757Z,98867.97
2023-09-06T09:15:22.698Z,98870.69
2023-09-06T09:18:00.181Z,98864.94
2023-09-06T09:20:27.742Z,98872.50
2023-09-06T09:22:59.259Z,98853.16
2023-09-06T09:25:25.664Z,98869.19
2023-09-06T09:27:52.065Z,98866.16
2023-09-06T09:30:18.699Z,98855.00
2023-09-06T09:32:45.196Z,98871.28
2023-09-06T09:35:12.436Z,98870.38
2023-09-06T09:37:43.104Z,98859.47
2023-09-06T09:40:19.368Z,98855.69
2023-09-06T09:42:55.655Z,98871.88
2023-09-06T09:45:25.899Z,98869.41
2023-09-06T09:47:58.673Z,98867.63
2023-09-06T09:50:30.028Z,98868.97
2023-09-06T09:52:58.775Z,98874.22
2023-09-06T09:55:33.721Z,98850.09
2023-09-06T09:58:00.320Z,98875.03
2023-09-06T10:00:27.327Z,98868.75
2023-09-06T10:02:53.832Z,98855.56
2023-09-06T10:05:20.989Z,98862.94
2023-09-06T10:07:50.097Z,98856.81
2023-09-06T10:10:18.764Z,98829.25
2023-09-06T10:12:46.152Z,98859.72
2023-09-06T10:15:14.191Z,98855.50
2023-09-06T10:17:41.721Z,98833.22
2023-09-06T10:20:08.793Z,98856.44
2023-09-06T10:22:35.199Z,98851.34
2023-09-06T10:25:05.775Z,98856.66
2023-09-06T10:27:33.295Z,98863.50
2023-09-06T10:30:04.529Z,98858.09
2023-09-06T10:32:40.547Z,98836.41
2023-09-06T10:35:24.445Z,98855.97
2023-09-06T10:38:10.922Z,98855.59
2023-09-06T10:40:49.220Z,98839.53
2023-09-06T10:43:19.048Z,98853.09
2023-09-06T10:46:18.771Z,98850.13
2023-09-06T10:49:13.353Z,98852.88
2023-09-06T10:52:05.200Z,98854.47
2023-09-06T10:54:32.560Z,98844.88
2023-09-06T10:56:58.995Z,98827.09
2023-09-06T10:59:25.374Z,98840.47
2023-09-06T11:02:10.731Z,98839.50
2023-09-06T11:04:37.265Z,98839.34
2023-09-06T11:07:04.004Z,98837.75
2023-09-06T11:09:31.099Z,98846.50
2023-09-06T11:11:58.435Z,98843.00
2023-09-06T11:14:30.928Z,98840.38
2023-09-06T11:16:57.338Z,98834.44
2023-09-06T11:19:30.467Z,98822.19
2023-09-06T11:22:10.099Z,98829.84
2023-09-06T11:24:37.292Z,98839.06
2023-09-06T11:27:22.626Z,98838.94
2023-09-06T11:29:59.785Z,98830.31
2023-09-06T11:32:26.655Z,98837.44
2023-09-06T11:34:53.148Z,98834.53
2023-09-06T11:37:19.878Z,98831.44
2023-09-06T11:39:46.640Z,98831.63
2023-09-06T11:42:14.926Z,98825.78
2023-09-06T11:44:45.224Z,98822.94
2023-09-06T11:47:11.735Z,98821.06
2023-09-06T11:49:38.213Z,98815.91
2023-09-06T11:52:05.061Z,98819.00
2023-09-06T11:54:32.585Z,98811.06
2023-09-06T11:56:59.288Z,98820.81
2023-09-06T11:59:28.767Z,98813.16
2023-09-06T12:01:56.088Z,98813.72
2023-09-06T12:04:22.549Z,98804.97
2023-09-06T12:06:50.080Z,98816.25
2023-09-06T12:09:16.533Z,98796.56
2023-09-06T12:11:43.253Z,98810.69
2023-09-06T12:14:10.340Z,98802.13
2023-09-06T12:16:36.875Z,98798.44
2023-09-06T12:19:03.781Z,98798.47
2023-09-06T12:21:30.188Z,98778.28
2023-09-06T12:23:58.496Z,98792.38
2023-09-06T12:26:24.914Z,98788.47
2023-09-06T12:28:51.471Z,98786.03
2023-09-06T12:31:18.367Z,98790.03
2023-09-06T12:33:45.988Z,98794.03
2023-09-06T12:36:12.422Z,98799.31
2023-09-06T12:38:38.805Z,98769.22
2023-09-06T12:41:05.204Z,98777.25
2023-09-06T12:43:31.725Z,98789.84
2023-09-06T12:45:58.140Z,98776.25
2023-09-06T12:48:25.085Z,98782.44
2023-09-06T12:50:52.332Z,98766.06
2023-09-06T12:53:19.792Z,98758.00
2023-09-06T12:55:48.993Z,98768.34
2023-09-06T12:58:15.438Z,98769.66
2023-09-06T13:00:42.239Z,98765.84
2023-09-06T13:03:08.743Z,98770.03
2023-09-06T13:05:35.274Z,98765.91
2023-09-06T13:08:02.136Z,98748.91
2023-09-06T13:10:30.011Z,98764.41
2023-09-06T13:12:56.455Z,98748.88
2023-09-06T13:15:23.268Z,98762.66
2023-09-06T13:17:49.889Z,98756.19
2023-09-06T13:20:16.407Z,98759.75
2023-09-06T13:22:43.012Z,98763.84
2023-09-06T13:25:10.696Z,98768.78
2023-09-06T13:27:37.352Z,98760.72
2023-09-06T13:30:04.259Z,98764.25
2023-09-06T13:32:30.663Z,98758.00
2023-09-06T13:34:57.193Z,98763.84
2023-09-06T13:37:23.709Z,98759.75
2023-09-06T13:39:50.208Z,98759.88
2023-09-06T13:42:17.225Z,98757.56
2023-09-06T13:44:43.884Z,98758.56
2023-09-06T13:47:10.289Z,98742.31
2023-09-06T13:49:36.887Z,98755.81
2023-09-06T13:52:04.013Z,98757.75
2023-09-06T13:54:30.364Z,98740.41
2023-09-06T13:56:56.728Z,98744.53
2023-09-06T13:59:23.566Z,98744.97
2023-09-06T14:01:50.215Z,98718.75
2023-09-06T14:04:17.089Z,98736.53
2023-09-06T14:06:43.755Z,98722.16
2023-09-06T14:09:10.144Z,98736.03
2023-09-06T14:11:36.519Z,98746.16
2023-09-06T14:14:03.158Z,98733.09
2023-09-06T14:16:29.555Z,98737.97
2023-09-06T14:18:55.922Z,98740.72
2023-09-06T14:21:22.267Z,98726.31
2023-09-06T14:23:48.669Z,98728.59
2023-09-06T14:26:15.107Z,98722.50
2023-09-06T14:28:42.366Z,98734.06
2023-09-06T14:31:12.835Z,98721.28
2023-09-06T14:33:39.956Z,98726.69
2023-09-06T14:36:06.844Z,98726.47
2023-09-06T14:38:33.995Z,98709.75
2023-09-06T14:41:00.822Z,98715.47
2023-09-06T14:43:27.254Z,98721.81
2023-09-06T14:46:01.773Z,98721.63
2023-09-06T14:48:28.332Z,98719.41
2023-09-06T14:51:01.593Z,98725.59
2023-09-06T14:53:28.120Z,98730.94
2023-09-06T14:55:59.076Z,98729.31
2023-09-06T14:58:25.514Z,98722.53
2023-09-06T15:00:53.617Z,98731.03
2023-09-06T15:03:20.247Z,98710.59
2023-09-06T15:05:46.822Z,98728.44
2023-09-06T15:08:13.175Z,98719.63
2023-09-06T15:10:39.826Z,98714.50
2023-09-06T15:13:06.195Z,98714.59
2023-09-06T15:15:32.626Z,98715.72
2023-09-06T15:18:00.523Z,98722.13
2023-09-06T15:20:27.139Z,98714.72
2023-09-06T15:22:53.525Z,98727.06
2023-09-06T15:25:19.890Z,98715.22
2023-09-06T15:27:46.265Z,98722.97
2023-09-06T15:30:12.735Z,98725.75
2023-09-06T15:32:39.185Z,98722.97
2023-09-06T15:35:06.063Z,98727.66
2023-09-06T15:37:32.643Z,98724.47
2023-09-06T15:39:59.076Z,98721.38
2023-09-06T15:42:25.569Z,98727.19
2023-09-06T15:44:52.209Z,98719.00
2023-09-06T15:47:18.834Z,98714.78
2023-09-06T15:49:45.339Z,98710.25
2023-09-06T15:52:12.379Z,98723.13
2023-09-06T15:54:38.885Z,98714.94
2023-09-06T15:57:05.770Z,98726.75
2023-09-06T15:59:32.184Z,98730.47
2023-09-06T16:01:58.672Z,98734.47
2023-09-06T16:04:25.125Z,98713.72
2023-09-06T16:06:51.537Z,98723.16
2023-09-06T16:09:17.912Z,98729.19
2023-09-06T16:11:44.296Z,98714.47
2023-09-06T16:14:10.773Z,98725.03
2023-09-06T16:16:37.202Z,98710.91
2023-09-06T16:19:03.638Z,98714.25
2023-09-06T16:21:32.097Z,98730.28
2023-09-06T16:24:00.129Z,98730.91
2023-09-06T16:26:26.560Z,98730.06
2023-09-06T16:28:52.999Z,98739.19
2023-09-06T16:31:19.373Z,98731.50
2023-09-06T16:33:45.823Z,98742.25
2023-09-06T16:36:12.325Z,98739.03
2023-09-06T16:38:38.725Z,98733.72
2023-09-06T16:41:05.112Z,98728.81
2023-09-06T16:43:31.485Z,98715.00
2023-09-06T16:45:57.983Z,98726.13
2023-09-06T16:48:24.458Z,98698.75
2023-09-06T16:50:50.868Z,98722.41
2023-09-06T16:53:20.034Z,98720.88
2023-09-06T16:55:46.813Z,98719.56
2023-09-06T16:58:13.605Z,98714.34
2023-09-06T17:00:42.213Z,98721.63
2023-09-06T17:03:09.359Z,98730.13
2023-09-06T17:05:36.094Z,98728.59
2023-09-06T17:08:02.684Z,98730.13
2023-09-06T17:10:29.121Z,98729.81
2023-09-06T17:12:55.516Z,98726.94
2023-09-06T17:15:22.367Z,98719.78
2023-09-06T17:17:50.051Z,98722.22
2023-09-06T17:20:17.918Z,98722.78
2023-09-06T17:22:47.459Z,98722.50
2023-09-06T17:25:14.243Z,98727.63
2023-09-06T17:27:40.699Z,98732.91
2023-09-06T17:30:07.795Z,98734.97
2023-09-06T17:32:34.281Z,98715.38
2023-09-06T17:35:00.778Z,98723.94
2023-09-06T17:37:27.158Z,98732.91
2023-09-06T17:39:53.597Z,98740.03
2023-09-06T17:42:21.167Z,98714.59
2023-09-06T17:44:47.529Z,98740.69
2023-09-06T17:47:13.880Z,98715.78
2023-09-06T17:49:40.278Z,98731.16
2023-09-06T17:52:06.665Z,98740.22
2023-09-06T17:54:33.050Z,98743.56
2023-09-06T17:56:59.413Z,98726.13
2023-09-06T17:59:26.969Z,98753.59
2023-09-06T18:01:53.570Z,98760.97
2023-09-06T18:04:21.135Z,98752.84
2023-09-06T18:06:47.779Z,98757.00
2023-09-06T18:09:14.169Z,98761.09
2023-09-06T18:11:40.565Z,98760.69
2023-09-06T18:14:06.970Z,98768.94
2023-09-06T18:16:33.487Z,98759.03
2023-09-06T18:18:59.901Z,98770.66
2023-09-06T18:21:26.276Z,98759.91
2023-09-06T18:23:52.642Z,98773.47
2023-09-06T18:26:19.057Z,98771.06
2023-09-06T18:28:45.454Z,98776.56
2023-09-06T18:31:11.940Z,98776.47
2023-09-06T18:33:38.715Z,98767.31
2023-09-06T18:36:05.830Z,98774.91
2023-09-06T18:38:32.860Z,98775.41
2023-09-06T18:40:59.451Z,98777.00
2023-09-06T18:43:26.121Z,98774.34
2023-09-06T18:45:52.554Z,98776.69
2023-09-06T18:48:21.697Z,98762.69
2023-09-06T18:50:49.245Z,98779.66
2023-09-06T18:53:15.666Z,98785.22
2023-09-06T18:55:42.715Z,98787.22
2023-09-06T18:58:09.376Z,98785.00
2023-09-06T19:00:36.331Z,98783.75
2023-09-06T19:03:03.421Z,98796.41
2023-09-06T19:05:29.916Z,98794.25
2023-09-06T19:07:56.391Z,98796.44
2023-09-06T19:10:22.803Z,98803.59
2023-09-06T19:12:49.183Z,98785.16
2023-09-06T19:15:15.546Z,98799.28
2023-09-06T19:17:42.081Z,98791.47
2023-09-06T19:20:09.253Z,98787.47
2023-09-06T19:22:35.734Z,98796.44
2023-09-06T19:25:02.175Z,98793.47
2023-09-06T19:27:28.781Z,98788.44
2023-09-06T19:29:58.705Z,98793.28
2023-09-06T19:32:25.160Z,98797.25
2023-09-06T19:34:51.526Z,98800.19
2023-09-06T19:37:19.523Z,98791.53
2023-09-06T19:39:46.495Z,98786.41
2023-09-06T19:42:14.992Z,98793.94
2023-09-06T19:44:41.820Z,98784.47
2023-09-06T19:47:08.751Z,98777.50
2023-09-06T19:49:35.380Z,98786.31
2023-09-06T19:52:01.865Z,98783.06
2023-09-06T19:54:30.473Z,98794.34
2023-09-06T19:56:56.840Z,98796.75
2023-09-06T19:59:23.241Z,98788.19
2023-09-06T20:01:49.686Z,98791.53
2023-09-06T20:04:16.252Z,98789.84
2023-09-06T20:06:42.673Z,98795.56
2023-09-06T20:09:09.056Z,98794.16
2023-09-06T20:11:35.751Z,98805.69
2023-09-06T20:14:02.610Z,98801.47
2023-09-06T20:16:29.463Z,98804.16
2023-09-06T20:18:59.052Z,98810.69
2023-09-06T20:21:25.474Z,98812.94
2023-09-06T20:23:52.459Z,98806.34
2023-09-06T20:26:19.024Z,98808.25
2023-09-06T20:28:45.614Z,98812.28
2023-09-06T20:31:12.319Z,98810.25
2023-09-06T20:33:38.918Z,98788.94
2023-09-06T20:36:05.758Z,98816.13
2023-09-06T20:38:33.741Z,98814.25
2023-09-06T20:41:01.981Z,98812.38
2023-09-06T20:43:28.944Z,98818.47
2023-09-06T20:45:55.606Z,98802.81
2023-09-06T20:48:23.163Z,98819.81
2023-09-06T20:50:53.577Z,98816.78
2023-09-06T20:53:23.045Z,98813.00
2023-09-06T20:55:49.417Z,98821.09
2023-09-06T20:58:16.196Z,98821.47
2023-09-06T21:00:43.560Z,98816.53
2023-09-06T21:03:10.365Z,98802.81
2023-09-06T21:05:37.465Z,98821.59
2023-09-06T21:08:05.360Z,98812.44
2023-09-06T21:10:35.120Z,98809.47
2023-09-06T21:13:02.015Z,98810.34
2023-09-06T21:15:28.384Z,98820.00
2023-09-06T21:17:54.917Z,98816.53
2023-09-06T21:20:21.572Z,98826.50
2023-09-06T21:22:47.985Z,98821.88
2023-09-06T21:25:14.344Z,98820.75
2023-09-06T21:27:40.719Z,98818.88
2023-09-06T21:30:07.620Z,98805.50
2023-09-06T21:32:35.150Z,98818.94
2023-09-06T21:35:02.103Z,98818.91
2023-09-06T21:37:28.496Z,98816.66
2023-09-06T21:39:58.009Z,98826.59
2023-09-06T21:42:24.497Z,98825.47
2023-09-06T21:44:50.897Z,98818.97
2023-09-06T21:47:18.603Z,98829.75
2023-09-06T21:49:44.967Z,98822.03
2023-09-06T21:52:11.356Z,98820.94
2023-09-06T21:54:37.970Z,98817.47
2023-09-06T21:57:04.766Z,98822.84
2023-09-06T21:59:31.134Z,98819.78
2023-09-06T22:01:57.507Z,98831.25
2023-09-06T22:04:24.015Z,98815.97
2023-09-06T22:06:50.638Z,98825.53
2023-09-06T22:09:17.036Z,98830.50
2023-09-06T22:11:43.429Z,98827.09
2023-09-06T22:14:09.918Z,98814.44
2023-09-06T22:16:36.515Z,98829.00
2023-09-06T22:19:03.118Z,98832.81
2023-09-06T22:21:29.532Z,98840.84
2023-09-06T22:23:55.939Z,98847.38
2023-09-06T22:26:22.288Z,98840.84
2023-09-06T22:28:48.671Z,98848.91
2023-09-06T22:31:15.073Z,98846.97
2023-09-06T22:33:41.475Z,98814.41
2023-09-06T22:36:07.831Z,98838.19
2023-09-06T22:38:34.185Z,98835.81
2023-09-06T22:41:00.549Z,98836.63
2023-09-06T22:43:26.997Z,98849.63
2023-09-06T22:45:53.412Z,98836.97
2023-09-06T22:48:19.772Z,98835.09
2023-09-06T22:50:46.213Z,98839.31
2023-09-06T22:53:12.585Z,98829.00
2023-09-06T22:55:38.990Z,98835.09
2023-09-06T22:58:05.426Z,98834.34
2023-09-06T23:00:34.366Z,98843.50
2023-09-06T23:03:00.823Z,98840.03
2023-09-06T23:05:27.300Z,98837.38
2023-09-06T23:07:53.659Z,98838.50
2023-09-06T23:10:20.075Z,98840.41
2023-09-06T23:12:46.471Z,98824.28
2023-09-06T23:15:12.921Z,98843.84
2023-09-06T23:17:39.388Z,98841.56
2023-09-06T23:20:06.900Z,98844.63
2023-09-06T23:22:33.343Z,98818.94
2023-09-06T23:24:59.836Z,98844.97
2023-09-06T23:27:26.249Z,98838.09
2023-09-06T23:29:52.716Z,98838.81
2023-09-06T23:32:19.686Z,98846.09
2023-09-06T23:34:49.814Z,98833.47
2023-09-06T23:37:16.530Z,98844.88
2023-09-06T23:39:42.993Z,98849.44
2023-09-06T23:42:09.374Z,98841.03
2023-09-06T23:44:35.864Z,98826.44
2023-09-06T23:47:02.380Z,98845.59
2023-09-06T23:49:28.870Z,98840.25
2023-09-06T23:51:55.364Z,98847.09
2023-09-06T23:54:29.776Z,98849.78
2023-09-06T23:57:04.226Z,98825.63
2023-09-06T23:59:30.673Z,98824.91
